sensor_id;sensor_type;location;lat;lon;timestamp;pressure;altitude;pressure_sealevel;temperature;humidity
20019;BME280;10170;42.502;26.526;2023-07-31T00:01:40;99102.56;;;20.65;100.00
20019;BME280;10170;42.502;26.526;2023-07-31T00:04:07;99116.84;;;20.65;100.00
20019;BME280;10170;42.502;26.526;2023-07-31T00:06:34;99120.13;;;20.62;100.00
20019;BME280;10170;42.502;26.526;2023-07-31T00:09:01;99131.72;;;20.68;100.00
20019;BME280;10170;42.502;26.526;2023-07-31T00:11:27;99126.00;;;20.41;100.00
20019;BME280;10170;42.502;26.526;2023-07-31T00:13:54;99130.34;;;20.37;100.00
20019;BME280;10170;42.502;26.526;2023-07-31T00:16:21;99128.78;;;20.26;100.00
20019;BME280;10170;42.502;26.526;2023-07-31T00:18:48;99141.03;;;20.52;100.00
20019;BME280;10170;42.502;26.526;2023-07-31T00:21:15;99147.31;;;20.42;100.00
20019;BME280;10170;42.502;26.526;2023-07-31T00:23:41;99158.41;;;20.41;100.00
20019;BME280;10170;42.502;26.526;2023-07-31T00:26:08;99178.66;;;20.43;100.00
20019;BME280;10170;42.502;26.526;2023-07-31T00:28:35;99156.59;;;20.26;100.00
20019;BME280;10170;42.502;26.526;2023-07-31T00:31:02;99151.16;;;20.36;100.00
20019;BME280;10170;42.502;26.526;2023-07-31T00:33:31;99094.53;;;20.21;100.00
20019;BME280;10170;42.502;26.526;2023-07-31T00:35:58;99140.69;;;20.58;100.00
20019;BME280;10170;42.502;26.526;2023-07-31T00:38:24;99132.22;;;20.70;100.00
20019;BME280;10170;42.502;26.526;2023-07-31T00:40:51;99135.34;;;20.82;100.00
20019;BME280;10170;42.502;26.526;2023-07-31T00:43:18;99146.50;;;20.75;100.00
20019;BME280;10170;42.502;26.526;2023-07-31T00:45:45;99137.44;;;20.61;100.00
20019;BME280;10170;42.502;26.526;2023-07-31T00:48:12;99136.22;;;20.44;100.00
20019;BME280;10170;42.502;26.526;2023-07-31T00:50:39;99122.16;;;20.47;100.00
20019;BME280;10170;42.502;26.526;2023-07-31T00:53:06;99101.50;;;20.32;100.00
20019;BME280;10170;42.502;26.526;2023-07-31T00:55:33;99106.34;;;20.30;100.00
20019;BME280;10170;42.502;26.526;2023-07-31T00:58:00;99103.03;;;20.38;100.00
20019;BME280;10170;42.502;26.526;2023-07-31T01:00:26;99092.66;;;20.22;100.00
20019;BME280;10170;42.502;26.526;2023-07-31T01:02:53;99086.69;;;20.25;100.00
20019;BME280;10170;42.502;26.526;2023-07-31T01:05:26;99078.63;;;20.20;100.00
20019;BME280;10170;42.502;26.526;2023-07-31T01:08:15;99088.00;;;20.32;100.00
20019;BME280;10170;42.502;26.526;2023-07-31T01:10:56;99087.41;;;20.35;100.00
20019;BME280;10170;42.502;26.526;2023-07-31T01:13:28;99077.19;;;20.32;100.00
20019;BME280;10170;42.502;26.526;2023-07-31T01:15:55;99076.50;;;20.50;100.00
20019;BME280;10170;42.502;26.526;2023-07-31T01:18:21;99088.13;;;20.46;100.00
20019;BME280;10170;42.502;26.526;2023-07-31T01:20:54;99099.78;;;20.41;100.00
20019;BME280;10170;42.502;26.526;2023-07-31T01:26:28;99082.66;;;20.22;100.00
20019;BME280;10170;42.502;26.526;2023-07-31T01:29:15;99087.47;;;20.30;100.00
20019;BME280;10170;42.502;26.526;2023-07-31T01:31:48;99098.53;;;20.29;100.00
20019;BME280;10170;42.502;26.526;2023-07-31T01:34:17;99085.34;;;20.22;100.00
20019;BME280;10170;42.502;26.526;2023-07-31T01:36:44;99076.19;;;20.13;100.00
20019;BME280;10170;42.502;26.526;2023-07-31T01:39:11;99094.56;;;20.16;100.00
20019;BME280;10170;42.502;26.526;2023-07-31T01:41:38;99076.91;;;19.95;100.00
20019;BME280;10170;42.502;26.526;2023-07-31T01:44:05;99092.78;;;20.02;100.00
20019;BME280;10170;42.502;26.526;2023-07-31T01:46:32;99073.38;;;19.94;100.00
20019;BME280;10170;42.502;26.526;2023-07-31T01:48:59;99096.03;;;19.99;100.00
20019;BME280;10170;42.502;26.526;2023-07-31T01:51:26;99097.34;;;20.01;100.00
20019;BME280;10170;42.502;26.526;2023-07-31T01:53:52;99084.91;;;20.05;100.00
20019;BME280;10170;42.502;26.526;2023-07-31T01:56:19;99089.22;;;20.06;100.00
20019;BME280;10170;42.502;26.526;2023-07-31T01:58:47;99082.41;;;20.19;100.00
20019;BME280;10170;42.502;26.526;2023-07-31T02:01:14;99091.84;;;20.21;100.00
20019;BME280;10170;42.502;26.526;2023-07-31T02:03:41;99089.16;;;20.21;100.00
20019;BME280;10170;42.502;26.526;2023-07-31T02:06:09;99090.44;;;20.29;100.00
20019;BME280;10170;42.502;26.526;2023-07-31T02:08:35;99070.72;;;20.28;100.00
20019;BME280;10170;42.502;26.526;2023-07-31T02:11:03;99076.22;;;20.18;100.00
20019;BME280;10170;42.502;26.526;2023-07-31T02:13:29;99082.09;;;20.25;100.00
20019;BME280;10170;42.502;26.526;2023-07-31T02:15:56;99084.56;;;20.17;100.00
20019;BME280;10170;42.502;26.526;2023-07-31T02:18:23;99066.31;;;20.04;100.00
20019;BME280;10170;42.502;26.526;2023-07-31T02:20:50;99070.56;;;20.15;100.00
20019;BME280;10170;42.502;26.526;2023-07-31T02:23:20;99077.84;;;20.14;100.00
20019;BME280;10170;42.502;26.526;2023-07-31T02:25:47;99075.13;;;20.19;100.00
20019;BME280;10170;42.502;26.526;2023-07-31T02:28:14;99067.38;;;20.08;100.00
20019;BME280;10170;42.502;26.526;2023-07-31T02:30:44;99079.47;;;20.10;100.00
20019;BME280;10170;42.502;26.526;2023-07-31T02:33:10;99072.47;;;20.09;100.00
20019;BME280;10170;42.502;26.526;2023-07-31T02:35:37;99068.69;;;20.10;100.00
20019;BME280;10170;42.502;26.526;2023-07-31T02:38:04;99062.63;;;20.28;100.00
20019;BME280;10170;42.502;26.526;2023-07-31T02:40:31;99056.47;;;20.23;100.00
20019;BME280;10170;42.502;26.526;2023-07-31T02:42:58;99051.09;;;20.18;100.00
20019;BME280;10170;42.502;26.526;2023-07-31T02:45:24;99062.09;;;20.26;100.00
20019;BME280;10170;42.502;26.526;2023-07-31T02:47:51;99054.00;;;20.26;100.00
20019;BME280;10170;42.502;26.526;2023-07-31T02:50:18;99057.03;;;20.20;100.00
20019;BME280;10170;42.502;26.526;2023-07-31T02:52:45;99061.28;;;20.31;100.00
20019;BME280;10170;42.502;26.526;2023-07-31T02:55:12;99066.31;;;20.37;100.00
20019;BME280;10170;42.502;26.526;2023-07-31T02:57:39;99067.34;;;20.46;100.00
20019;BME280;10170;42.502;26.526;2023-07-31T03:00:06;99073.78;;;20.50;100.00
20019;BME280;10170;42.502;26.526;2023-07-31T03:02:33;99056.72;;;20.55;100.00
20019;BME280;10170;42.502;26.526;2023-07-31T03:05:00;99070.59;;;20.72;100.00
20019;BME280;10170;42.502;26.526;2023-07-31T03:07:27;99077.22;;;20.84;100.00
20019;BME280;10170;42.502;26.526;2023-07-31T03:09:54;99076.31;;;20.94;100.00
20019;BME280;10170;42.502;26.526;2023-07-31T03:12:20;99081.88;;;21.08;100.00
20019;BME280;10170;42.502;26.526;2023-07-31T03:14:47;99099.53;;;21.24;100.00
20019;BME280;10170;42.502;26.526;2023-07-31T03:17:15;99096.09;;;21.37;100.00
20019;BME280;10170;42.502;26.526;2023-07-31T03:19:41;99081.13;;;21.44;100.00
20019;BME280;10170;42.502;26.526;2023-07-31T03:22:08;99087.84;;;21.28;100.00
20019;BME280;10170;42.502;26.526;2023-07-31T03:24:35;99083.38;;;21.19;100.00
20019;BME280;10170;42.502;26.526;2023-07-31T03:27:02;99083.56;;;20.98;100.00
20019;BME280;10170;42.502;26.526;2023-07-31T03:29:28;99083.00;;;21.02;100.00
20019;BME280;10170;42.502;26.526;2023-07-31T03:31:55;99074.59;;;21.03;100.00
20019;BME280;10170;42.502;26.526;2023-07-31T03:34:22;99081.94;;;21.03;100.00
20019;BME280;10170;42.502;26.526;2023-07-31T03:36:49;99083.88;;;20.92;100.00
20019;BME280;10170;42.502;26.526;2023-07-31T03:39:16;99080.91;;;20.93;100.00
20019;BME280;10170;42.502;26.526;2023-07-31T03:41:43;99087.06;;;21.04;100.00
20019;BME280;10170;42.502;26.526;2023-07-31T03:44:10;99085.84;;;21.15;100.00
20019;BME280;10170;42.502;26.526;2023-07-31T03:46:36;99091.66;;;21.04;100.00
20019;BME280;10170;42.502;26.526;2023-07-31T03:49:04;99096.69;;;21.10;100.00
20019;BME280;10170;42.502;26.526;2023-07-31T03:51:31;99095.75;;;20.96;100.00
20019;BME280;10170;42.502;26.526;2023-07-31T03:53:57;99091.06;;;21.07;100.00
20019;BME280;10170;42.502;26.526;2023-07-31T03:56:24;99084.34;;;21.04;100.00
20019;BME280;10170;42.502;26.526;2023-07-31T03:58:51;99100.63;;;20.94;100.00
20019;BME280;10170;42.502;26.526;2023-07-31T04:01:18;99097.34;;;20.73;100.00
20019;BME280;10170;42.502;26.526;2023-07-31T04:03:46;99113.63;;;20.63;100.00
20019;BME280;10170;42.502;26.526;2023-07-31T04:06:13;99104.66;;;20.39;100.00
20019;BME280;10170;42.502;26.526;2023-07-31T04:08:40;99103.78;;;20.49;100.00
20019;BME280;10170;42.502;26.526;2023-07-31T04:11:06;99088.38;;;20.49;100.00
20019;BME280;10170;42.502;26.526;2023-07-31T04:13:33;99107.63;;;20.71;100.00
20019;BME280;10170;42.502;26.526;2023-07-31T04:16:00;99101.34;;;20.76;100.00
20019;BME280;10170;42.502;26.526;2023-07-31T04:18:27;99100.94;;;20.64;100.00
20019;BME280;10170;42.502;26.526;2023-07-31T04:20:53;99113.56;;;21.02;100.00
20019;BME280;10170;42.502;26.526;2023-07-31T04:23:21;99107.25;;;21.12;100.00
20019;BME280;10170;42.502;26.526;2023-07-31T04:25:47;99113.84;;;21.01;100.00
20019;BME280;10170;42.502;26.526;2023-07-31T04:28:14;99107.75;;;21.14;100.00
20019;BME280;10170;42.502;26.526;2023-07-31T04:30:41;99122.59;;;21.16;100.00
20019;BME280;10170;42.502;26.526;2023-07-31T04:33:08;99117.94;;;21.22;100.00
20019;BME280;10170;42.502;26.526;2023-07-31T04:35:35;99132.69;;;21.34;100.00
20019;BME280;10170;42.502;26.526;2023-07-31T04:38:02;99127.94;;;21.45;100.00
20019;BME280;10170;42.502;26.526;2023-07-31T04:40:28;99139.88;;;21.44;100.00
20019;BME280;10170;42.502;26.526;2023-07-31T04:42:55;99138.53;;;21.41;100.00
20019;BME280;10170;42.502;26.526;2023-07-31T04:45:22;99145.97;;;21.73;100.00
20019;BME280;10170;42.502;26.526;2023-07-31T04:47:49;99142.81;;;21.89;100.00
20019;BME280;10170;42.502;26.526;2023-07-31T04:50:16;99144.88;;;22.16;100.00
20019;BME280;10170;42.502;26.526;2023-07-31T04:52:42;99144.28;;;21.82;100.00
20019;BME280;10170;42.502;26.526;2023-07-31T04:55:09;99141.94;;;22.31;100.00
20019;BME280;10170;42.502;26.526;2023-07-31T04:57:36;99154.75;;;22.07;100.00
20019;BME280;10170;42.502;26.526;2023-07-31T05:00:03;99151.47;;;22.10;100.00
20019;BME280;10170;42.502;26.526;2023-07-31T05:02:30;99165.16;;;22.56;100.00
20019;BME280;10170;42.502;26.526;2023-07-31T05:04:57;99158.13;;;22.55;100.00
20019;BME280;10170;42.502;26.526;2023-07-31T05:07:24;99181.00;;;22.81;100.00
20019;BME280;10170;42.502;26.526;2023-07-31T05:09:50;99173.41;;;22.64;100.00
20019;BME280;10170;42.502;26.526;2023-07-31T05:12:17;99174.72;;;22.85;100.00
20019;BME280;10170;42.502;26.526;2023-07-31T05:14:44;99182.06;;;22.98;100.00
20019;BME280;10170;42.502;26.526;2023-07-31T05:17:11;99191.13;;;23.08;100.00
20019;BME280;10170;42.502;26.526;2023-07-31T05:19:37;99196.94;;;23.47;100.00
20019;BME280;10170;42.502;26.526;2023-07-31T05:22:04;99195.22;;;23.78;100.00
20019;BME280;10170;42.502;26.526;2023-07-31T05:24:31;99192.22;;;23.93;100.00
20019;BME280;10170;42.502;26.526;2023-07-31T05:26:58;99189.09;;;23.72;100.00
20019;BME280;10170;42.502;26.526;2023-07-31T05:29:24;99201.56;;;24.14;100.00
20019;BME280;10170;42.502;26.526;2023-07-31T05:31:51;99196.47;;;24.35;100.00
20019;BME280;10170;42.502;26.526;2023-07-31T05:34:18;99208.00;;;24.05;100.00
20019;BME280;10170;42.502;26.526;2023-07-31T05:36:45;99209.50;;;23.83;100.00
20019;BME280;10170;42.502;26.526;2023-07-31T05:39:11;99219.88;;;23.68;100.00
20019;BME280;10170;42.502;26.526;2023-07-31T05:41:38;99219.84;;;23.95;100.00
20019;BME280;10170;42.502;26.526;2023-07-31T05:44:05;99219.97;;;23.90;100.00
20019;BME280;10170;42.502;26.526;2023-07-31T05:46:32;99220.47;;;23.92;100.00
20019;BME280;10170;42.502;26.526;2023-07-31T05:48:59;99205.47;;;24.08;100.00
20019;BME280;10170;42.502;26.526;2023-07-31T05:51:27;99218.16;;;24.13;100.00
20019;BME280;10170;42.502;26.526;2023-07-31T05:53:54;99216.41;;;24.30;100.00
20019;BME280;10170;42.502;26.526;2023-07-31T05:56:21;99211.00;;;24.52;100.00
20019;BME280;10170;42.502;26.526;2023-07-31T05:58:48;99205.19;;;24.45;100.00
20019;BME280;10170;42.502;26.526;2023-07-31T06:01:16;99209.16;;;24.61;100.00
20019;BME280;10170;42.502;26.526;2023-07-31T06:03:44;99222.25;;;24.24;100.00
20019;BME280;10170;42.502;26.526;2023-07-31T06:06:11;99213.63;;;24.22;100.00
20019;BME280;10170;42.502;26.526;2023-07-31T06:08:37;99212.94;;;24.16;100.00
20019;BME280;10170;42.502;26.526;2023-07-31T06:11:04;99217.75;;;24.19;100.00
20019;BME280;10170;42.502;26.526;2023-07-31T06:13:32;99231.19;;;24.38;100.00
20019;BME280;10170;42.502;26.526;2023-07-31T06:15:58;99226.91;;;23.96;100.00
20019;BME280;10170;42.502;26.526;2023-07-31T06:18:26;99232.78;;;24.39;100.00
20019;BME280;10170;42.502;26.526;2023-07-31T06:20:53;99241.28;;;24.24;100.00
20019;BME280;10170;42.502;26.526;2023-07-31T06:23:20;99239.94;;;24.35;100.00
20019;BME280;10170;42.502;26.526;2023-07-31T06:25:47;99234.19;;;24.36;100.00
20019;BME280;10170;42.502;26.526;2023-07-31T06:28:14;99238.19;;;24.52;100.00
20019;BME280;10170;42.502;26.526;2023-07-31T06:30:41;99239.06;;;24.61;100.00
20019;BME280;10170;42.502;26.526;2023-07-31T06:33:08;99244.44;;;24.88;100.00
20019;BME280;10170;42.502;26.526;2023-07-31T06:35:36;99221.75;;;24.93;100.00
20019;BME280;10170;42.502;26.526;2023-07-31T06:38:02;99247.91;;;24.80;100.00
20019;BME280;10170;42.502;26.526;2023-07-31T06:40:30;99245.31;;;24.62;100.00
20019;BME280;10170;42.502;26.526;2023-07-31T06:42:56;99250.31;;;24.82;100.00
20019;BME280;10170;42.502;26.526;2023-07-31T06:45:23;99246.00;;;24.67;100.00
20019;BME280;10170;42.502;26.526;2023-07-31T06:47:50;99231.09;;;24.65;100.00
20019;BME280;10170;42.502;26.526;2023-07-31T06:50:17;99250.34;;;24.68;100.00
20019;BME280;10170;42.502;26.526;2023-07-31T06:52:44;99236.22;;;24.80;100.00
20019;BME280;10170;42.502;26.526;2023-07-31T06:55:19;99244.19;;;24.76;100.00
20019;BME280;10170;42.502;26.526;2023-07-31T06:57:50;99250.38;;;24.90;100.00
20019;BME280;10170;42.502;26.526;2023-07-31T07:00:18;99254.03;;;24.86;100.00
20019;BME280;10170;42.502;26.526;2023-07-31T07:02:46;99252.34;;;24.76;100.00
20019;BME280;10170;42.502;26.526;2023-07-31T07:05:17;99253.75;;;24.74;100.00
20019;BME280;10170;42.502;26.526;2023-07-31T07:07:44;99264.34;;;24.75;100.00
20019;BME280;10170;42.502;26.526;2023-07-31T07:10:11;99268.91;;;24.88;100.00
20019;BME280;10170;42.502;26.526;2023-07-31T07:12:38;99278.44;;;24.64;100.00
20019;BME280;10170;42.502;26.526;2023-07-31T07:15:05;99276.84;;;24.63;100.00
20019;BME280;10170;42.502;26.526;2023-07-31T07:17:32;99293.50;;;24.48;100.00
20019;BME280;10170;42.502;26.526;2023-07-31T07:19:59;99286.34;;;24.38;100.00
20019;BME280;10170;42.502;26.526;2023-07-31T07:22:26;99294.00;;;24.50;100.00
20019;BME280;10170;42.502;26.526;2023-07-31T07:24:53;99291.50;;;24.26;100.00
20019;BME280;10170;42.502;26.526;2023-07-31T07:27:20;99304.69;;;24.33;100.00
20019;BME280;10170;42.502;26.526;2023-07-31T07:29:50;99289.53;;;24.18;100.00
20019;BME280;10170;42.502;26.526;2023-07-31T07:32:17;99304.91;;;24.23;100.00
20019;BME280;10170;42.502;26.526;2023-07-31T07:34:44;99303.16;;;23.99;100.00
20019;BME280;10170;42.502;26.526;2023-07-31T07:37:11;99317.06;;;24.12;100.00
20019;BME280;10170;42.502;26.526;2023-07-31T07:39:38;99318.91;;;24.16;100.00
20019;BME280;10170;42.502;26.526;2023-07-31T07:42:05;99320.41;;;24.22;100.00
20019;BME280;10170;42.502;26.526;2023-07-31T07:44:32;99316.78;;;24.13;100.00
20019;BME280;10170;42.502;26.526;2023-07-31T07:46:58;99318.78;;;24.08;100.00
20019;BME280;10170;42.502;26.526;2023-07-31T07:49:25;99333.28;;;24.30;100.00
20019;BME280;10170;42.502;26.526;2023-07-31T07:51:52;99325.03;;;24.22;100.00
20019;BME280;10170;42.502;26.526;2023-07-31T07:54:19;99335.28;;;24.38;100.00
20019;BME280;10170;42.502;26.526;2023-07-31T07:56:47;99329.72;;;23.89;100.00
20019;BME280;10170;42.502;26.526;2023-07-31T07:59:14;99339.06;;;23.83;100.00
20019;BME280;10170;42.502;26.526;2023-07-31T08:01:41;99336.03;;;23.84;100.00
20019;BME280;10170;42.502;26.526;2023-07-31T08:04:08;99347.53;;;23.49;100.00
20019;BME280;10170;42.502;26.526;2023-07-31T08:06:35;99321.25;;;23.31;100.00
20019;BME280;10170;42.502;26.526;2023-07-31T08:09:02;99330.72;;;22.78;100.00
20019;BME280;10170;42.502;26.526;2023-07-31T08:11:33;99304.50;;;22.31;100.00
20019;BME280;10170;42.502;26.526;2023-07-31T08:14:00;99321.53;;;22.13;100.00
20019;BME280;10170;42.502;26.526;2023-07-31T08:16:27;99310.53;;;21.76;100.00
20019;BME280;10170;42.502;26.526;2023-07-31T08:18:54;99303.19;;;21.53;100.00
20019;BME280;10170;42.502;26.526;2023-07-31T08:21:21;99300.38;;;21.34;100.00
20019;BME280;10170;42.502;26.526;2023-07-31T08:23:48;99315.41;;;21.17;100.00
20019;BME280;10170;42.502;26.526;2023-07-31T08:26:16;99307.69;;;21.00;100.00
20019;BME280;10170;42.502;26.526;2023-07-31T08:28:43;99303.91;;;20.96;100.00
20019;BME280;10170;42.502;26.526;2023-07-31T08:31:10;99302.41;;;20.80;100.00
20019;BME280;10170;42.502;26.526;2023-07-31T08:33:39;99310.25;;;20.76;100.00
20019;BME280;10170;42.502;26.526;2023-07-31T08:36:06;99294.00;;;20.81;100.00
20019;BME280;10170;42.502;26.526;2023-07-31T08:38:33;99282.69;;;20.74;100.00
20019;BME280;10170;42.502;26.526;2023-07-31T08:41:03;99283.84;;;20.68;100.00
20019;BME280;10170;42.502;26.526;2023-07-31T08:43:30;99284.41;;;20.60;100.00
20019;BME280;10170;42.502;26.526;2023-07-31T08:45:57;99282.81;;;20.59;100.00
20019;BME280;10170;42.502;26.526;2023-07-31T08:48:25;99279.53;;;20.62;100.00
20019;BME280;10170;42.502;26.526;2023-07-31T08:50:52;99279.06;;;20.55;100.00
20019;BME280;10170;42.502;26.526;2023-07-31T08:53:19;99270.66;;;20.57;100.00
20019;BME280;10170;42.502;26.526;2023-07-31T08:55:48;99274.97;;;20.63;100.00
20019;BME280;10170;42.502;26.526;2023-07-31T08:58:15;99271.97;;;20.64;100.00
20019;BME280;10170;42.502;26.526;2023-07-31T09:00:46;99274.97;;;20.63;100.00
20019;BME280;10170;42.502;26.526;2023-07-31T09:03:17;99267.44;;;20.55;100.00
20019;BME280;10170;42.502;26.526;2023-07-31T09:05:46;99285.97;;;20.71;100.00
20019;BME280;10170;42.502;26.526;2023-07-31T09:08:14;99277.00;;;20.76;100.00
20019;BME280;10170;42.502;26.526;2023-07-31T09:10:43;99271.84;;;20.79;100.00
20019;BME280;10170;42.502;26.526;2023-07-31T09:13:10;99266.53;;;20.69;100.00
20019;BME280;10170;42.502;26.526;2023-07-31T09:15:40;99255.56;;;20.56;100.00
20019;BME280;10170;42.502;26.526;2023-07-31T09:18:07;99249.03;;;20.57;100.00
20019;BME280;10170;42.502;26.526;2023-07-31T09:20:35;99247.38;;;20.66;100.00
20019;BME280;10170;42.502;26.526;2023-07-31T09:23:11;99252.38;;;20.82;100.00
20019;BME280;10170;42.502;26.526;2023-07-31T09:25:40;99260.06;;;20.65;100.00
20019;BME280;10170;42.502;26.526;2023-07-31T09:28:08;99261.56;;;20.81;100.00
20019;BME280;10170;42.502;26.526;2023-07-31T09:31:04;99270.91;;;21.04;100.00
20019;BME280;10170;42.502;26.526;2023-07-31T09:33:58;99260.47;;;21.21;100.00
20019;BME280;10170;42.502;26.526;2023-07-31T09:36:25;99258.41;;;21.37;100.00
20019;BME280;10170;42.502;26.526;2023-07-31T09:38:52;99252.69;;;21.43;100.00
20019;BME280;10170;42.502;26.526;2023-07-31T09:41:18;99249.94;;;21.72;100.00
20019;BME280;10170;42.502;26.526;2023-07-31T09:43:53;99222.78;;;21.82;100.00
20019;BME280;10170;42.502;26.526;2023-07-31T09:46:20;99234.56;;;21.91;100.00
20019;BME280;10170;42.502;26.526;2023-07-31T09:48:48;99246.63;;;22.41;100.00
20019;BME280;10170;42.502;26.526;2023-07-31T09:51:15;99247.97;;;22.43;100.00
20019;BME280;10170;42.502;26.526;2023-07-31T09:53:50;99248.06;;;22.75;100.00
20019;BME280;10170;42.502;26.526;2023-07-31T09:56:18;99250.34;;;22.87;100.00
20019;BME280;10170;42.502;26.526;2023-07-31T09:58:47;99251.72;;;23.17;100.00
20019;BME280;10170;42.502;26.526;2023-07-31T10:01:14;99257.66;;;23.51;100.00
20019;BME280;10170;42.502;26.526;2023-07-31T10:03:43;99258.22;;;23.34;100.00
20019;BME280;10170;42.502;26.526;2023-07-31T10:06:13;99261.28;;;23.73;100.00
20019;BME280;10170;42.502;26.526;2023-07-31T10:08:43;99259.59;;;23.91;100.00
20019;BME280;10170;42.502;26.526;2023-07-31T10:11:13;99258.00;;;23.76;100.00
20019;BME280;10170;42.502;26.526;2023-07-31T10:13:41;99262.47;;;24.49;100.00
20019;BME280;10170;42.502;26.526;2023-07-31T10:16:09;99262.13;;;25.22;100.00
20019;BME280;10170;42.502;26.526;2023-07-31T10:18:38;99257.66;;;24.81;100.00
20019;BME280;10170;42.502;26.526;2023-07-31T10:21:06;99267.59;;;25.30;100.00
20019;BME280;10170;42.502;26.526;2023-07-31T10:23:34;99264.44;;;25.37;100.00
20019;BME280;10170;42.502;26.526;2023-07-31T10:26:02;99260.41;;;25.26;100.00
20019;BME280;10170;42.502;26.526;2023-07-31T10:28:29;99253.94;;;25.44;100.00
20019;BME280;10170;42.502;26.526;2023-07-31T10:30:57;99260.94;;;25.36;100.00
20019;BME280;10170;42.502;26.526;2023-07-31T10:33:24;99258.00;;;25.02;100.00
20019;BME280;10170;42.502;26.526;2023-07-31T10:36:12;99263.13;;;25.03;100.00
20019;BME280;10170;42.502;26.526;2023-07-31T10:38:38;99229.28;;;24.74;100.00
20019;BME280;10170;42.502;26.526;2023-07-31T10:41:11;99266.34;;;25.06;100.00
20019;BME280;10170;42.502;26.526;2023-07-31T10:43:38;99262.63;;;25.01;100.00
20019;BME280;10170;42.502;26.526;2023-07-31T10:46:14;99271.59;;;25.02;100.00
20019;BME280;10170;42.502;26.526;2023-07-31T10:48:41;99276.59;;;25.09;100.00
20019;BME280;10170;42.502;26.526;2023-07-31T10:51:09;99276.56;;;25.83;100.00
20019;BME280;10170;42.502;26.526;2023-07-31T10:53:37;99274.22;;;25.60;100.00
20019;BME280;10170;42.502;26.526;2023-07-31T10:56:06;99260.72;;;25.55;100.00
20019;BME280;10170;42.502;26.526;2023-07-31T10:58:33;99261.03;;;25.84;100.00
20019;BME280;10170;42.502;26.526;2023-07-31T11:01:03;99261.81;;;25.76;100.00
20019;BME280;10170;42.502;26.526;2023-07-31T11:03:46;99265.34;;;25.85;100.00
20019;BME280;10170;42.502;26.526;2023-07-31T11:06:14;99260.97;;;26.06;100.00
20019;BME280;10170;42.502;26.526;2023-07-31T11:08:49;99252.53;;;26.33;100.00
20019;BME280;10170;42.502;26.526;2023-07-31T11:11:18;99259.41;;;26.31;100.00
20019;BME280;10170;42.502;26.526;2023-07-31T11:13:49;99259.75;;;26.38;100.00
20019;BME280;10170;42.502;26.526;2023-07-31T11:16:18;99262.47;;;26.38;100.00
20019;BME280;10170;42.502;26.526;2023-07-31T11:18:47;99262.16;;;26.48;100.00
20019;BME280;10170;42.502;26.526;2023-07-31T11:21:16;99260.41;;;26.60;100.00
20019;BME280;10170;42.502;26.526;2023-07-31T11:23:51;99258.13;;;27.39;100.00
20019;BME280;10170;42.502;26.526;2023-07-31T11:26:19;99246.63;;;26.99;100.00
20019;BME280;10170;42.502;26.526;2023-07-31T11:28:47;99246.53;;;27.88;100.00
20019;BME280;10170;42.502;26.526;2023-07-31T11:31:14;99246.06;;;28.24;100.00
20019;BME280;10170;42.502;26.526;2023-07-31T11:33:41;99243.19;;;28.21;100.00
20019;BME280;10170;42.502;26.526;2023-07-31T11:36:17;99241.53;;;27.99;100.00
20019;BME280;10170;42.502;26.526;2023-07-31T11:38:45;99233.41;;;27.73;100.00
20019;BME280;10170;42.502;26.526;2023-07-31T11:41:14;99231.81;;;28.10;100.00
20019;BME280;10170;42.502;26.526;2023-07-31T11:43:41;99231.72;;;28.48;100.00
20019;BME280;10170;42.502;26.526;2023-07-31T11:46:09;99229.56;;;28.12;100.00
20019;BME280;10170;42.502;26.526;2023-07-31T11:48:37;99226.84;;;27.74;100.00
20019;BME280;10170;42.502;26.526;2023-07-31T11:51:05;99221.66;;;27.81;100.00
20019;BME280;10170;42.502;26.526;2023-07-31T11:53:36;99216.13;;;28.89;100.00
20019;BME280;10170;42.502;26.526;2023-07-31T11:56:10;99207.00;;;28.97;100.00
20019;BME280;10170;42.502;26.526;2023-07-31T11:58:38;99196.94;;;28.89;100.00
20019;BME280;10170;42.502;26.526;2023-07-31T12:01:06;99205.50;;;28.26;100.00
20019;BME280;10170;42.502;26.526;2023-07-31T12:03:34;99200.56;;;28.81;100.00
20019;BME280;10170;42.502;26.526;2023-07-31T12:06:01;99195.63;;;29.08;100.00
20019;BME280;10170;42.502;26.526;2023-07-31T12:08:29;99201.59;;;28.77;100.00
20019;BME280;10170;42.502;26.526;2023-07-31T12:11:02;99197.28;;;28.26;100.00
20019;BME280;10170;42.502;26.526;2023-07-31T12:13:30;99194.63;;;28.18;100.00
20019;BME280;10170;42.502;26.526;2023-07-31T12:15:59;99189.34;;;29.52;100.00
20019;BME280;10170;42.502;26.526;2023-07-31T12:18:33;99184.88;;;29.35;100.00
20019;BME280;10170;42.502;26.526;2023-07-31T12:21:02;99181.53;;;29.18;100.00
20019;BME280;10170;42.502;26.526;2023-07-31T12:23:31;99179.22;;;29.76;100.00
20019;BME280;10170;42.502;26.526;2023-07-31T12:26:05;99179.03;;;30.33;100.00
20019;BME280;10170;42.502;26.526;2023-07-31T12:28:47;99178.19;;;29.93;100.00
20019;BME280;10170;42.502;26.526;2023-07-31T12:31:19;99167.84;;;29.42;100.00
20019;BME280;10170;42.502;26.526;2023-07-31T12:33:49;99158.63;;;29.58;100.00
20019;BME280;10170;42.502;26.526;2023-07-31T12:36:18;99162.16;;;29.59;100.00
20019;BME280;10170;42.502;26.526;2023-07-31T12:38:45;99159.19;;;29.40;100.00
20019;BME280;10170;42.502;26.526;2023-07-31T12:41:12;99162.53;;;29.69;100.00
20019;BME280;10170;42.502;26.526;2023-07-31T12:43:41;99158.38;;;29.39;100.00
20019;BME280;10170;42.502;26.526;2023-07-31T12:46:08;99148.88;;;29.13;100.00
20019;BME280;10170;42.502;26.526;2023-07-31T12:48:37;99147.09;;;29.53;100.00